sensor_id;sensor_type;location;lat;lon;timestamp;temperature;humidity
1329;DHT22;658;48.820;9.354;2023-04-27T00:03:23;24.10;39.20
1329;DHT22;658;48.820;9.354;2023-04-27T00:07:24;24.10;39.20
1329;DHT22;658;48.820;9.354;2023-04-27T00:11:28;24.10;39.30
1329;DHT22;658;48.820;9.354;2023-04-27T00:15:28;24.10;39.30
1329;DHT22;658;48.820;9.354;2023-04-27T00:19:29;24.10;39.30
1329;DHT22;658;48.820;9.354;2023-04-27T00:23:29;24.10;39.30
1329;DHT22;658;48.820;9.354;2023-04-27T00:27:30;24.00;39.20
1329;DHT22;658;48.820;9.354;2023-04-27T00:31:31;24.00;39.20
1329;DHT22;658;48.820;9.354;2023-04-27T00:35:32;23.90;39.30
1329;DHT22;658;48.820;9.354;2023-04-27T00:39:33;23.90;39.30
1329;DHT22;658;48.820;9.354;2023-04-27T00:43:48;23.90;39.20
1329;DHT22;658;48.820;9.354;2023-04-27T00:47:48;23.90;39.30
1329;DHT22;658;48.820;9.354;2023-04-27T00:51:49;23.90;39.30
1329;DHT22;658;48.820;9.354;2023-04-27T00:55:49;23.80;39.30
1329;DHT22;658;48.820;9.354;2023-04-27T00:59:50;23.80;39.40
1329;DHT22;658;48.820;9.354;2023-04-27T01:03:55;23.80;39.40
1329;DHT22;658;48.820;9.354;2023-04-27T01:07:56;23.80;39.40
1329;DHT22;658;48.820;9.354;2023-04-27T01:11:57;23.80;39.50
1329;DHT22;658;48.820;9.354;2023-04-27T01:15:57;23.80;39.50
1329;DHT22;658;48.820;9.354;2023-04-27T01:19:58;23.70;39.40
1329;DHT22;658;48.820;9.354;2023-04-27T01:23:58;23.70;39.50
1329;DHT22;658;48.820;9.354;2023-04-27T01:27:59;23.70;39.50
1329;DHT22;658;48.820;9.354;2023-04-27T01:32:00;23.70;39.50
1329;DHT22;658;48.820;9.354;2023-04-27T01:36:00;23.60;39.50
1329;DHT22;658;48.820;9.354;2023-04-27T01:40:04;23.60;39.60
1329;DHT22;658;48.820;9.354;2023-04-27T01:44:07;23.60;39.60
1329;DHT22;658;48.820;9.354;2023-04-27T01:48:08;23.60;39.60
1329;DHT22;658;48.820;9.354;2023-04-27T01:52:11;23.60;39.70
1329;DHT22;658;48.820;9.354;2023-04-27T01:56:11;23.60;39.70
1329;DHT22;658;48.820;9.354;2023-04-27T02:00:12;23.50;39.60
1329;DHT22;658;48.820;9.354;2023-04-27T02:04:13;23.50;39.60
1329;DHT22;658;48.820;9.354;2023-04-27T02:08:15;23.50;39.60
1329;DHT22;658;48.820;9.354;2023-04-27T02:12:16;23.50;39.70
1329;DHT22;658;48.820;9.354;2023-04-27T02:16:19;23.50;39.70
1329;DHT22;658;48.820;9.354;2023-04-27T02:20:22;23.50;39.70
1329;DHT22;658;48.820;9.354;2023-04-27T02:24:23;23.40;39.60
1329;DHT22;658;48.820;9.354;2023-04-27T02:28:24;23.40;39.70
1329;DHT22;658;48.820;9.354;2023-04-27T02:32:24;23.40;39.70
1329;DHT22;658;48.820;9.354;2023-04-27T02:36:27;23.40;39.80
1329;DHT22;658;48.820;9.354;2023-04-27T02:40:31;23.40;39.80
1329;DHT22;658;48.820;9.354;2023-04-27T02:44:33;23.30;39.80
1329;DHT22;658;48.820;9.354;2023-04-27T02:48:34;23.30;39.80
1329;DHT22;658;48.820;9.354;2023-04-27T02:52:34;23.30;39.90
1329;DHT22;658;48.820;9.354;2023-04-27T02:56:38;23.30;39.90
1329;DHT22;658;48.820;9.354;2023-04-27T03:00:40;23.30;39.90
1329;DHT22;658;48.820;9.354;2023-04-27T03:04:41;23.30;39.90
1329;DHT22;658;48.820;9.354;2023-04-27T03:08:42;23.30;39.90
1329;DHT22;658;48.820;9.354;2023-04-27T03:12:48;23.20;39.90
1329;DHT22;658;48.820;9.354;2023-04-27T03:16:48;23.20;39.80
1329;DHT22;658;48.820;9.354;2023-04-27T03:20:49;23.20;39.90
1329;DHT22;658;48.820;9.354;2023-04-27T03:24:49;23.20;39.90
1329;DHT22;658;48.820;9.354;2023-04-27T03:28:50;23.20;39.90
1329;DHT22;658;48.820;9.354;2023-04-27T03:32:50;23.20;39.90
1329;DHT22;658;48.820;9.354;2023-04-27T03:36:51;23.20;39.90
1329;DHT22;658;48.820;9.354;2023-04-27T03:40:52;23.10;39.90
1329;DHT22;658;48.820;9.354;2023-04-27T03:44:53;23.10;39.90
1329;DHT22;658;48.820;9.354;2023-04-27T03:48:53;23.10;39.90
1329;DHT22;658;48.820;9.354;2023-04-27T03:52:56;23.10;39.90
1329;DHT22;658;48.820;9.354;2023-04-27T03:56:59;23.10;39.90
1329;DHT22;658;48.820;9.354;2023-04-27T04:01:01;23.10;40.00
1329;DHT22;658;48.820;9.354;2023-04-27T04:05:02;23.10;39.90
1329;DHT22;658;48.820;9.354;2023-04-27T04:09:05;23.00;39.90
1329;DHT22;658;48.820;9.354;2023-04-27T04:13:06;23.00;39.90
1329;DHT22;658;48.820;9.354;2023-04-27T04:17:09;23.00;39.90
1329;DHT22;658;48.820;9.354;2023-04-27T04:21:14;23.00;39.90
1329;DHT22;658;48.820;9.354;2023-04-27T04:25:15;23.00;40.00
1329;DHT22;658;48.820;9.354;2023-04-27T04:29:15;23.00;40.00
1329;DHT22;658;48.820;9.354;2023-04-27T04:33:16;23.00;40.00
1329;DHT22;658;48.820;9.354;2023-04-27T04:37:19;22.90;39.90
1329;DHT22;658;48.820;9.354;2023-04-27T04:41:19;22.90;40.00
1329;DHT22;658;48.820;9.354;2023-04-27T04:45:20;22.90;40.00
1329;DHT22;658;48.820;9.354;2023-04-27T04:49:23;22.90;40.10
1329;DHT22;658;48.820;9.354;2023-04-27T04:53:23;22.90;40.40
1329;DHT22;658;48.820;9.354;2023-04-27T04:57:25;23.00;40.30
1329;DHT22;658;48.820;9.354;2023-04-27T05:01:28;23.00;40.20
1329;DHT22;658;48.820;9.354;2023-04-27T05:05:29;23.10;40.40
1329;DHT22;658;48.820;9.354;2023-04-27T05:09:29;23.10;40.40
1329;DHT22;658;48.820;9.354;2023-04-27T05:13:32;23.00;40.10
1329;DHT22;658;48.820;9.354;2023-04-27T05:17:32;23.00;40.10
1329;DHT22;658;48.820;9.354;2023-04-27T05:21:35;23.10;40.50
1329;DHT22;658;48.820;9.354;2023-04-27T05:25:36;23.10;40.40
1329;DHT22;658;48.820;9.354;2023-04-27T05:29:43;23.10;40.40
1329;DHT22;658;48.820;9.354;2023-04-27T05:33:43;23.10;40.30
1329;DHT22;658;48.820;9.354;2023-04-27T05:37:44;23.10;40.20
1329;DHT22;658;48.820;9.354;2023-04-27T05:41:45;23.10;40.10
1329;DHT22;658;48.820;9.354;2023-04-27T05:45:45;23.20;40.90
1329;DHT22;658;48.820;9.354;2023-04-27T05:49:49;23.20;40.10
1329;DHT22;658;48.820;9.354;2023-04-27T05:53:53;23.20;40.20
1329;DHT22;658;48.820;9.354;2023-04-27T05:57:54;23.20;40.20
1329;DHT22;658;48.820;9.354;2023-04-27T06:01:55;23.30;40.20
1329;DHT22;658;48.820;9.354;2023-04-27T06:05:59;23.30;40.20
1329;DHT22;658;48.820;9.354;2023-04-27T06:10:00;23.30;40.20
1329;DHT22;658;48.820;9.354;2023-04-27T06:14:03;23.30;40.10
1329;DHT22;658;48.820;9.354;2023-04-27T06:18:03;23.30;40.10
1329;DHT22;658;48.820;9.354;2023-04-27T06:22:04;23.30;40.10
1329;DHT22;658;48.820;9.354;2023-04-27T06:26:05;23.30;40.10
1329;DHT22;658;48.820;9.354;2023-04-27T06:30:06;23.40;40.20
1329;DHT22;658;48.820;9.354;2023-04-27T06:34:07;23.40;40.10
1329;DHT22;658;48.820;9.354;2023-04-27T06:38:10;23.40;40.10
1329;DHT22;658;48.820;9.354;2023-04-27T06:42:10;23.50;40.30
1329;DHT22;658;48.820;9.354;2023-04-27T06:46:11;23.50;40.20
1329;DHT22;658;48.820;9.354;2023-04-27T06:50:14;23.50;40.20
1329;DHT22;658;48.820;9.354;2023-04-27T06:54:15;23.60;40.20
1329;DHT22;658;48.820;9.354;2023-04-27T06:58:16;23.60;40.10
1329;DHT22;658;48.820;9.354;2023-04-27T07:02:16;23.60;40.10
1329;DHT22;658;48.820;9.354;2023-04-27T07:06:17;23.70;40.10
1329;DHT22;658;48.820;9.354;2023-04-27T07:10:18;23.70;40.10
1329;DHT22;658;48.820;9.354;2023-04-27T07:14:18;23.80;40.10
1329;DHT22;658;48.820;9.354;2023-04-27T07:18:19;23.80;40.10
1329;DHT22;658;48.820;9.354;2023-04-27T07:22:21;23.80;40.00
1329;DHT22;658;48.820;9.354;2023-04-27T07:26:22;23.80;40.00
1329;DHT22;658;48.820;9.354;2023-04-27T07:30:23;23.90;40.00
1329;DHT22;658;48.820;9.354;2023-04-27T07:34:23;23.90;40.00
1329;DHT22;658;48.820;9.354;2023-04-27T07:38:24;23.90;40.00
1329;DHT22;658;48.820;9.354;2023-04-27T07:42:27;23.90;40.00
1329;DHT22;658;48.820;9.354;2023-04-27T07:46:28;24.00;40.00
1329;DHT22;658;48.820;9.354;2023-04-27T07:50:30;24.00;40.10
1329;DHT22;658;48.820;9.354;2023-04-27T07:54:31;24.10;40.20
1329;DHT22;658;48.820;9.354;2023-04-27T07:58:31;24.10;40.10
1329;DHT22;658;48.820;9.354;2023-04-27T08:02:32;24.20;40.00
1329;DHT22;658;48.820;9.354;2023-04-27T08:06:33;24.20;39.90
1329;DHT22;658;48.820;9.354;2023-04-27T08:10:34;24.20;40.00
1329;DHT22;658;48.820;9.354;2023-04-27T08:14:35;24.20;40.00
1329;DHT22;658;48.820;9.354;2023-04-27T08:18:38;24.20;40.00
1329;DHT22;658;48.820;9.354;2023-04-27T08:22:39;24.30;40.00
1329;DHT22;658;48.820;9.354;2023-04-27T08:26:42;24.30;39.90
1329;DHT22;658;48.820;9.354;2023-04-27T08:30:46;24.30;40.10
1329;DHT22;658;48.820;9.354;2023-04-27T08:34:46;24.40;40.00
1329;DHT22;658;48.820;9.354;2023-04-27T08:38:47;24.40;40.00
1329;DHT22;658;48.820;9.354;2023-04-27T08:42:55;24.40;40.00
1329;DHT22;658;48.820;9.354;2023-04-27T08:46:56;24.40;39.90
1329;DHT22;658;48.820;9.354;2023-04-27T08:50:58;24.40;39.80
1329;DHT22;658;48.820;9.354;2023-04-27T08:55:00;24.40;39.80
1329;DHT22;658;48.820;9.354;2023-04-27T08:59:03;24.40;39.60
1329;DHT22;658;48.820;9.354;2023-04-27T09:03:23;24.50;39.80
1329;DHT22;658;48.820;9.354;2023-04-27T09:07:24;24.50;39.70
1329;DHT22;658;48.820;9.354;2023-04-27T09:11:30;24.50;39.60
1329;DHT22;658;48.820;9.354;2023-04-27T09:15:40;24.50;39.50
1329;DHT22;658;48.820;9.354;2023-04-27T09:19:41;24.50;39.50
1329;DHT22;658;48.820;9.354;2023-04-27T09:23:42;24.60;39.40
1329;DHT22;658;48.820;9.354;2023-04-27T09:27:43;24.60;39.70
1329;DHT22;658;48.820;9.354;2023-04-27T09:31:46;24.60;39.50
1329;DHT22;658;48.820;9.354;2023-04-27T09:35:47;24.70;39.50
1329;DHT22;658;48.820;9.354;2023-04-27T09:39:48;24.70;39.30
1329;DHT22;658;48.820;9.354;2023-04-27T09:43:49;24.80;39.40
1329;DHT22;658;48.820;9.354;2023-04-27T09:47:51;24.80;39.40
1329;DHT22;658;48.820;9.354;2023-04-27T09:51:52;24.90;39.40
1329;DHT22;658;48.820;9.354;2023-04-27T10:00:34;25.00;39.30
1329;DHT22;658;48.820;9.354;2023-04-27T10:08:59;25.10;39.20
1329;DHT22;658;48.820;9.354;2023-04-27T10:13:03;25.10;39.00
1329;DHT22;658;48.820;9.354;2023-04-27T10:17:09;25.20;39.10
1329;DHT22;658;48.820;9.354;2023-04-27T10:21:10;25.20;39.00
1329;DHT22;658;48.820;9.354;2023-04-27T10:25:13;25.30;39.00
1329;DHT22;658;48.820;9.354;2023-04-27T10:29:15;25.30;38.80
1329;DHT22;658;48.820;9.354;2023-04-27T10:33:21;25.40;38.70
1329;DHT22;658;48.820;9.354;2023-04-27T10:37:22;25.40;38.50
1329;DHT22;658;48.820;9.354;2023-04-27T10:41:33;25.40;38.30
1329;DHT22;658;48.820;9.354;2023-04-27T10:45:34;25.50;38.20
1329;DHT22;658;48.820;9.354;2023-04-27T10:49:37;25.50;38.10
1329;DHT22;658;48.820;9.354;2023-04-27T10:53:37;25.60;38.00
1329;DHT22;658;48.820;9.354;2023-04-27T10:57:55;25.60;37.80
1329;DHT22;658;48.820;9.354;2023-04-27T11:01:55;25.70;37.70
1329;DHT22;658;48.820;9.354;2023-04-27T11:06:01;25.80;37.70
1329;DHT22;658;48.820;9.354;2023-04-27T11:10:03;25.80;37.60
1329;DHT22;658;48.820;9.354;2023-04-27T11:14:06;25.80;37.50
1329;DHT22;658;48.820;9.354;2023-04-27T11:18:07;25.90;37.50
1329;DHT22;658;48.820;9.354;2023-04-27T11:22:08;25.90;37.50
1329;DHT22;658;48.820;9.354;2023-04-27T11:30:22;25.90;37.60
1329;DHT22;658;48.820;9.354;2023-04-27T11:34:24;25.90;37.60
1329;DHT22;658;48.820;9.354;2023-04-27T11:38:32;25.90;37.60
1329;DHT22;658;48.820;9.354;2023-04-27T11:42:33;25.90;37.60
1329;DHT22;658;48.820;9.354;2023-04-27T11:46:42;25.90;37.70
1329;DHT22;658;48.820;9.354;2023-04-27T11:50:46;25.90;37.70
1329;DHT22;658;48.820;9.354;2023-04-27T11:54:52;25.90;37.70
1329;DHT22;658;48.820;9.354;2023-04-27T11:58:58;25.90;37.60
1329;DHT22;658;48.820;9.354;2023-04-27T12:02:58;26.00;37.90
1329;DHT22;658;48.820;9.354;2023-04-27T12:07:00;25.90;37.90
1329;DHT22;658;48.820;9.354;2023-04-27T12:11:01;25.90;37.80
1329;DHT22;658;48.820;9.354;2023-04-27T12:15:02;25.90;37.80
1329;DHT22;658;48.820;9.354;2023-04-27T12:19:03;25.90;37.90
1329;DHT22;658;48.820;9.354;2023-04-27T12:23:03;26.00;38.00
1329;DHT22;658;48.820;9.354;2023-04-27T12:27:06;26.00;38.20
1329;DHT22;658;48.820;9.354;2023-04-27T12:31:07;26.00;38.00
1329;DHT22;658;48.820;9.354;2023-04-27T12:35:08;26.00;38.20
1329;DHT22;658;48.820;9.354;2023-04-27T12:39:17;26.00;38.50
1329;DHT22;658;48.820;9.354;2023-04-27T12:43:18;26.00;38.60
1329;DHT22;658;48.820;9.354;2023-04-27T12:47:20;26.00;38.30
1329;DHT22;658;48.820;9.354;2023-04-27T12:51:21;26.10;38.30
1329;DHT22;658;48.820;9.354;2023-04-27T12:55:22;26.10;38.20
1329;DHT22;658;48.820;9.354;2023-04-27T12:59:23;26.10;38.40
1329;DHT22;658;48.820;9.354;2023-04-27T13:03:25;26.10;38.50
1329;DHT22;658;48.820;9.354;2023-04-27T13:07:26;26.10;38.20
1329;DHT22;658;48.820;9.354;2023-04-27T13:11:27;26.00;35.50
1329;DHT22;658;48.820;9.354;2023-04-27T13:15:29;25.90;34.50
1329;DHT22;658;48.820;9.354;2023-04-27T13:19:30;25.90;34.00
1329;DHT22;658;48.820;9.354;2023-04-27T13:23:34;25.90;33.50
1329;DHT22;658;48.820;9.354;2023-04-27T13:27:34;25.70;33.30
1329;DHT22;658;48.820;9.354;2023-04-27T13:31:35;25.70;33.60
1329;DHT22;658;48.820;9.354;2023-04-27T13:35:36;25.70;33.30
1329;DHT22;658;48.820;9.354;2023-04-27T13:39:36;25.70;33.00
1329;DHT22;658;48.820;9.354;2023-04-27T13:43:37;25.60;32.80
1329;DHT22;658;48.820;9.354;2023-04-27T13:47:41;25.60;33.20
1329;DHT22;658;48.820;9.354;2023-04-27T13:51:41;25.60;32.40
1329;DHT22;658;48.820;9.354;2023-04-27T13:55:43;25.60;32.30
1329;DHT22;658;48.820;9.354;2023-04-27T13:59:43;25.60;32.00
1329;DHT22;658;48.820;9.354;2023-04-27T14:03:44;25.60;32.20
1329;DHT22;658;48.820;9.354;2023-04-27T14:07:45;25.60;32.00
1329;DHT22;658;48.820;9.354;2023-04-27T14:11:46;25.60;31.90
1329;DHT22;658;48.820;9.354;2023-04-27T14:15:46;25.60;31.90
1329;DHT22;658;48.820;9.354;2023-04-27T14:19:47;25.60;32.10
1329;DHT22;658;48.820;9.354;2023-04-27T14:23:50;25.60;32.00
1329;DHT22;658;48.820;9.354;2023-04-27T14:27:53;25.60;31.80
1329;DHT22;658;48.820;9.354;2023-04-27T14:31:56;25.60;31.70
1329;DHT22;658;48.820;9.354;2023-04-27T14:35:57;25.60;31.60
1329;DHT22;658;48.820;9.354;2023-04-27T14:40:00;25.50;31.40
1329;DHT22;658;48.820;9.354;2023-04-27T14:44:01;25.40;31.40
1329;DHT22;658;48.820;9.354;2023-04-27T14:48:02;25.40;31.60
1329;DHT22;658;48.820;9.354;2023-04-27T14:52:03;25.40;31.30
1329;DHT22;658;48.820;9.354;2023-04-27T14:56:06;25.40;31.30
1329;DHT22;658;48.820;9.354;2023-04-27T15:00:07;25.30;31.40
1329;DHT22;658;48.820;9.354;2023-04-27T15:04:12;25.30;31.60
1329;DHT22;658;48.820;9.354;2023-04-27T15:08:19;25.30;31.70
1329;DHT22;658;48.820;9.354;2023-04-27T15:12:22;25.20;31.80
1329;DHT22;658;48.820;9.354;2023-04-27T15:16:23;25.20;31.70
1329;DHT22;658;48.820;9.354;2023-04-27T15:20:24;25.10;32.40
1329;DHT22;658;48.820;9.354;2023-04-27T15:24:24;25.10;32.70
1329;DHT22;658;48.820;9.354;2023-04-27T15:28:25;25.20;33.40
1329;DHT22;658;48.820;9.354;2023-04-27T15:32:26;25.20;33.90
1329;DHT22;658;48.820;9.354;2023-04-27T15:36:29;25.30;34.00
1329;DHT22;658;48.820;9.354;2023-04-27T15:40:31;25.30;34.20
1329;DHT22;658;48.820;9.354;2023-04-27T15:44:32;25.30;34.40
1329;DHT22;658;48.820;9.354;2023-04-27T15:48:32;25.30;34.30
1329;DHT22;658;48.820;9.354;2023-04-27T15:52:35;25.30;34.30
1329;DHT22;658;48.820;9.354;2023-04-27T15:56:36;25.40;34.50
1329;DHT22;658;48.820;9.354;2023-04-27T16:00:36;25.40;34.50
1329;DHT22;658;48.820;9.354;2023-04-27T16:04:37;25.40;34.60
1329;DHT22;658;48.820;9.354;2023-04-27T16:08:40;25.30;34.60
1329;DHT22;658;48.820;9.354;2023-04-27T16:12:41;25.40;34.70
1329;DHT22;658;48.820;9.354;2023-04-27T16:16:44;25.40;34.80
1329;DHT22;658;48.820;9.354;2023-04-27T16:20:45;25.40;34.90
1329;DHT22;658;48.820;9.354;2023-04-27T16:24:49;25.30;34.90
1329;DHT22;658;48.820;9.354;2023-04-27T16:28:49;25.40;35.10
1329;DHT22;658;48.820;9.354;2023-04-27T16:32:51;25.30;35.10
1329;DHT22;658;48.820;9.354;2023-04-27T16:36:52;25.30;35.10
1329;DHT22;658;48.820;9.354;2023-04-27T16:40:53;25.30;35.20
1329;DHT22;658;48.820;9.354;2023-04-27T16:44:56;25.30;35.40
1329;DHT22;658;48.820;9.354;2023-04-27T16:48:56;25.30;35.40
1329;DHT22;658;48.820;9.354;2023-04-27T16:53:08;25.40;35.40
1329;DHT22;658;48.820;9.354;2023-04-27T16:57:10;25.30;35.50
1329;DHT22;658;48.820;9.354;2023-04-27T17:01:12;25.30;35.60
1329;DHT22;658;48.820;9.354;2023-04-27T17:05:13;25.30;35.70
1329;DHT22;658;48.820;9.354;2023-04-27T17:09:16;25.30;36.50
1329;DHT22;658;48.820;9.354;2023-04-27T17:13:18;25.40;36.10
1329;DHT22;658;48.820;9.354;2023-04-27T17:17:19;25.30;35.10
1329;DHT22;658;48.820;9.354;2023-04-27T17:21:21;25.30;33.80
1329;DHT22;658;48.820;9.354;2023-04-27T17:25:24;25.30;34.10
1329;DHT22;658;48.820;9.354;2023-04-27T17:29:24;25.30;33.70
1329;DHT22;658;48.820;9.354;2023-04-27T17:33:25;25.20;33.40
1329;DHT22;658;48.820;9.354;2023-04-27T17:37:28;25.10;33.30
1329;DHT22;658;48.820;9.354;2023-04-27T17:41:29;25.00;33.10
1329;DHT22;658;48.820;9.354;2023-04-27T17:45:36;25.00;33.70
1329;DHT22;658;48.820;9.354;2023-04-27T17:49:36;24.90;33.90
1329;DHT22;658;48.820;9.354;2023-04-27T17:53:39;24.80;34.10
1329;DHT22;658;48.820;9.354;2023-04-27T17:57:40;24.80;34.30
1329;DHT22;658;48.820;9.354;2023-04-27T18:01:40;24.60;36.50
1329;DHT22;658;48.820;9.354;2023-04-27T18:05:41;24.30;37.70
1329;DHT22;658;48.820;9.354;2023-04-27T18:09:47;23.90;38.00
1329;DHT22;658;48.820;9.354;2023-04-27T18:13:48;23.50;38.80
1329;DHT22;658;48.820;9.354;2023-04-27T18:17:49;23.20;39.80
1329;DHT22;658;48.820;9.354;2023-04-27T18:21:52;22.90;40.20
1329;DHT22;658;48.820;9.354;2023-04-27T18:25:57;23.00;39.90
1329;DHT22;658;48.820;9.354;2023-04-27T18:29:58;23.20;39.60
1329;DHT22;658;48.820;9.354;2023-04-27T18:34:00;23.30;39.30
1329;DHT22;658;48.820;9.354;2023-04-27T18:38:03;23.50;39.10
1329;DHT22;658;48.820;9.354;2023-04-27T18:42:04;23.60;38.80
1329;DHT22;658;48.820;9.354;2023-04-27T18:46:05;23.70;38.70
1329;DHT22;658;48.820;9.354;2023-04-27T18:50:06;23.80;38.60
1329;DHT22;658;48.820;9.354;2023-04-27T18:54:07;23.80;38.40
1329;DHT22;658;48.820;9.354;2023-04-27T18:58:07;23.90;38.40
1329;DHT22;658;48.820;9.354;2023-04-27T19:02:08;23.90;38.30
1329;DHT22;658;48.820;9.354;2023-04-27T19:06:08;23.90;38.20
1329;DHT22;658;48.820;9.354;2023-04-27T19:10:10;24.00;38.30
1329;DHT22;658;48.820;9.354;2023-04-27T19:14:13;24.00;38.10
1329;DHT22;658;48.820;9.354;2023-04-27T19:18:14;24.10;38.20
1329;DHT22;658;48.820;9.354;2023-04-27T19:22:14;24.10;38.20
1329;DHT22;658;48.820;9.354;2023-04-27T19:26:15;24.10;38.20
1329;DHT22;658;48.820;9.354;2023-04-27T19:30:18;24.10;38.60
1329;DHT22;658;48.820;9.354;2023-04-27T19:34:19;24.10;38.30
1329;DHT22;658;48.820;9.354;2023-04-27T19:38:20;24.20;38.40
1329;DHT22;658;48.820;9.354;2023-04-27T19:42:24;24.20;38.50
1329;DHT22;658;48.820;9.354;2023-04-27T19:46:25;24.20;38.60
1329;DHT22;658;48.820;9.354;2023-04-27T19:50:26;24.30;38.60
1329;DHT22;658;48.820;9.354;2023-04-27T19:54:26;24.30;38.50
1329;DHT22;658;48.820;9.354;2023-04-27T19:58:30;24.30;38.70
1329;DHT22;658;48.820;9.354;2023-04-27T20:02:33;24.30;38.60
1329;DHT22;658;48.820;9.354;2023-04-27T20:06:35;24.30;38.60
1329;DHT22;658;48.820;9.354;2023-04-27T20:10:36;24.40;38.70
1329;DHT22;658;48.820;9.354;2023-04-27T20:14:37;24.40;38.90
1329;DHT22;658;48.820;9.354;2023-04-27T20:18:38;24.40;38.90
1329;DHT22;658;48.820;9.354;2023-04-27T20:22:38;24.40;38.80
1329;DHT22;658;48.820;9.354;2023-04-27T20:26:39;24.50;38.90
1329;DHT22;658;48.820;9.354;2023-04-27T20:30:39;24.50;38.90
1329;DHT22;658;48.820;9.354;2023-04-27T20:34:40;24.50;39.00
1329;DHT22;658;48.820;9.354;2023-04-27T20:38:43;24.50;39.10
1329;DHT22;658;48.820;9.354;2023-04-27T20:42:44;24.50;39.20
1329;DHT22;658;48.820;9.354;2023-04-27T20:46:47;24.50;39.10
1329;DHT22;658;48.820;9.354;2023-04-27T20:50:48;24.50;39.30
1329;DHT22;658;48.820;9.354;2023-04-27T20:54:49;24.50;39.20
1329;DHT22;658;48.820;9.354;2023-04-27T20:58:50;24.50;39.30
1329;DHT22;658;48.820;9.354;2023-04-27T21:02:53;24.50;39.40
1329;DHT22;658;48.820;9.354;2023-04-27T21:06:56;24.50;39.70
1329;DHT22;658;48.820;9.354;2023-04-27T21:10:59;24.50;39.20
1329;DHT22;658;48.820;9.354;2023-04-27T21:15:02;24.50;39.10
1329;DHT22;658;48.820;9.354;2023-04-27T21:19:03;24.50;39.10
1329;DHT22;658;48.820;9.354;2023-04-27T21:23:08;24.50;39.10
1329;DHT22;658;48.820;9.354;2023-04-27T21:27:08;24.40;39.00
1329;DHT22;658;48.820;9.354;2023-04-27T21:31:11;24.40;39.00
1329;DHT22;658;48.820;9.354;2023-04-27T21:35:12;24.40;39.10
1329;DHT22;658;48.820;9.354;2023-04-27T21:39:13;24.40;39.10
1329;DHT22;658;48.820;9.354;2023-04-27T21:43:13;24.30;39.10
1329;DHT22;658;48.820;9.354;2023-04-27T21:47:14;24.30;39.20
1329;DHT22;658;48.820;9.354;2023-04-27T21:51:14;24.30;39.20
1329;DHT22;658;48.820;9.354;2023-04-27T21:55:15;24.30;39.20
1329;DHT22;658;48.820;9.354;2023-04-27T21:59:18;24.20;39.20
1329;DHT22;658;48.820;9.354;2023-04-27T22:03:18;24.20;39.30
1329;DHT22;658;48.820;9.354;2023-04-27T22:07:19;24.20;39.30
1329;DHT22;658;48.820;9.354;2023-04-27T22:11:19;24.10;39.30
1329;DHT22;658;48.820;9.354;2023-04-27T22:15:22;24.10;39.30
1329;DHT22;658;48.820;9.354;2023-04-27T22:19:26;24.10;39.40
1329;DHT22;658;48.820;9.354;2023-04-27T22:23:28;24.10;39.40
1329;DHT22;658;48.820;9.354;2023-04-27T22:27:31;24.00;39.30
1329;DHT22;658;48.820;9.354;2023-04-27T22:31:34;24.00;39.30
1329;DHT22;658;48.820;9.354;2023-04-27T22:35:36;24.00;39.40
1329;DHT22;658;48.820;9.354;2023-04-27T22:39:39;24.00;39.40
1329;DHT22;658;48.820;9.354;2023-04-27T22:43:39;24.00;39.40
1329;DHT22;658;48.820;9.354;2023-04-27T22:47:40;23.90;39.40
1329;DHT22;658;48.820;9.354;2023-04-27T22:51:40;23.90;39.50
1329;DHT22;658;48.820;9.354;2023-04-27T22:55:41;23.90;39.50
1329;DHT22;658;48.820;9.354;2023-04-27T22:59:42;23.90;39.50
1329;DHT22;658;48.820;9.354;2023-04-27T23:03:42;23.90;39.50
1329;DHT22;658;48.820;9.354;2023-04-27T23:07:43;23.80;39.50
1329;DHT22;658;48.820;9.354;2023-04-27T23:11:45;23.80;39.50
1329;DHT22;658;48.820;9.354;2023-04-27T23:15:47;23.80;39.60
1329;DHT22;658;48.820;9.354;2023-04-27T23:19:50;23.80;39.60
1329;DHT22;658;48.820;9.354;2023-04-27T23:23:50;23.80;39.50
1329;DHT22;658;48.820;9.354;2023-04-27T23:27:53;23.80;39.60
1329;DHT22;658;48.820;9.354;2023-04-27T23:32:02;23.80;39.70
1329;DHT22;658;48.820;9.354;2023-04-27T23:36:05;23.70;39.60
1329;DHT22;658;48.820;9.354;2023-04-27T23:40:09;23.70;39.60
1329;DHT22;658;48.820;9.354;2023-04-27T23:44:09;23.70;39.60
1329;DHT22;658;48.820;9.354;2023-04-27T23:48:10;23.70;39.60
1329;DHT22;658;48.820;9.354;2023-04-27T23:52:11;23.60;39.60
1329;DHT22;658;48.820;9.354;2023-04-27T23:56:18;23.70;39.60
